createdAt,value
2019-01-15T00:02:07.603Z,6.43
2019-01-15T00:04:38.219Z,8.40
2019-01-15T00:07:08.750Z,9.53
2019-01-15T00:09:39.391Z,6.53
2019-01-15T00:12:10.122Z,6.50
2019-01-15T00:14:40.978Z,6.83
2019-01-15T00:17:11.426Z,6.73
2019-01-15T00:19:42.138Z,7.90
2019-01-15T00:22:12.758Z,6.90
2019-01-15T00:24:43.302Z,5.40
2019-01-15T00:27:13.890Z,5.63
2019-01-15T00:29:44.735Z,4.77
2019-01-15T00:32:15.522Z,5.13
2019-01-15T00:34:46.203Z,5.80
2019-01-15T00:37:16.866Z,4.70
2019-01-15T00:39:47.391Z,4.23
2019-01-15T00:42:18.030Z,5.50
2019-01-15T00:44:50.223Z,5.53
2019-01-15T00:47:20.812Z,4.63
2019-01-15T00:49:51.384Z,5.17
2019-01-15T00:52:21.991Z,5.23
2019-01-15T00:54:52.635Z,5.23
2019-01-15T00:57:23.294Z,5.00
2019-01-15T00:59:53.967Z,4.60
2019-01-15T01:02:24.798Z,5.43
2019-01-15T01:04:55.290Z,5.27
2019-01-15T01:07:25.977Z,5.67
2019-01-15T01:09:56.661Z,5.27
2019-01-15T01:12:27.343Z,5.17
2019-01-15T01:14:58.010Z,5.93
2019-01-15T01:17:28.526Z,5.27
2019-01-15T01:19:59.188Z,5.30
2019-01-15T01:22:29.880Z,4.53
2019-01-15T01:25:00.409Z,4.50
2019-01-15T01:27:31.002Z,3.60
2019-01-15T01:30:01.727Z,3.93
2019-01-15T01:32:32.371Z,3.33
2019-01-15T01:35:03.129Z,3.63
2019-01-15T01:37:34.017Z,5.00
2019-01-15T01:40:05.920Z,4.20
2019-01-15T01:42:36.486Z,5.13
2019-01-15T01:45:08.674Z,4.47
2019-01-15T01:47:39.286Z,5.70
2019-01-15T01:50:11.026Z,4.67
2019-01-15T01:52:41.876Z,4.27
2019-01-15T01:55:13.958Z,3.87
2019-01-15T01:57:44.804Z,4.37
2019-01-15T02:00:20.957Z,3.50
2019-01-15T02:02:51.859Z,3.83
2019-01-15T02:05:22.311Z,3.83
2019-01-15T02:07:52.923Z,4.27
2019-01-15T02:10:23.546Z,3.17
2019-01-15T02:12:54.205Z,4.50
2019-01-15T02:15:25.805Z,3.50
2019-01-15T02:17:56.441Z,3.73
2019-01-15T02:20:27.109Z,4.07
2019-01-15T02:22:57.787Z,2.70
2019-01-15T02:25:28.283Z,3.73
2019-01-15T02:27:58.989Z,3.63
2019-01-15T02:30:29.835Z,3.27
2019-01-15T02:33:00.497Z,3.10
2019-01-15T02:35:31.195Z,3.77
2019-01-15T02:38:01.794Z,2.87
2019-01-15T02:40:32.363Z,3.50
2019-01-15T02:43:03.051Z,2.93
2019-01-15T02:45:33.595Z,2.87
2019-01-15T02:48:04.170Z,2.43
2019-01-15T02:50:34.829Z,3.77
2019-01-15T02:53:05.722Z,2.73
2019-01-15T02:55:36.390Z,3.17
2019-01-15T02:58:07.093Z,3.33
2019-01-15T03:00:37.778Z,2.67
2019-01-15T03:03:08.464Z,2.70
2019-01-15T03:05:38.946Z,2.50
2019-01-15T03:08:09.738Z,2.70
2019-01-15T03:10:40.336Z,3.37
2019-01-15T03:13:11.050Z,3.17
2019-01-15T03:15:41.715Z,2.60
2019-01-15T03:18:12.206Z,2.40
2019-01-15T03:20:42.911Z,2.93
2019-01-15T03:23:13.593Z,3.00
2019-01-15T03:25:44.131Z,3.00
2019-01-15T03:28:14.732Z,3.07
2019-01-15T03:30:45.500Z,2.50
2019-01-15T03:33:16.083Z,1.83
2019-01-15T03:35:46.908Z,1.57
2019-01-15T03:38:17.512Z,1.83
2019-01-15T03:40:48.134Z,2.50
2019-01-15T03:43:18.678Z,3.53
2019-01-15T03:45:49.243Z,2.00
2019-01-15T03:48:19.729Z,2.53
2019-01-15T03:50:51.305Z,2.43
2019-01-15T03:53:21.893Z,2.70
2019-01-15T03:55:52.547Z,1.60
2019-01-15T03:58:23.295Z,2.70
2019-01-15T04:00:53.853Z,2.60
2019-01-15T04:03:24.537Z,2.20
2019-01-15T04:05:55.088Z,1.73
2019-01-15T04:08:25.674Z,2.67
2019-01-15T04:10:56.382Z,2.37
2019-01-15T04:13:27.029Z,2.83
2019-01-15T04:15:57.581Z,2.37
2019-01-15T04:18:28.136Z,2.00
2019-01-15T04:20:58.819Z,1.53
2019-01-15T04:23:29.455Z,2.80
2019-01-15T04:25:59.953Z,1.93
2019-01-15T04:28:30.601Z,2.27
2019-01-15T04:31:01.220Z,3.13
2019-01-15T04:33:31.809Z,2.57
2019-01-15T04:36:02.470Z,2.33
2019-01-15T04:38:33.062Z,2.10
2019-01-15T04:41:03.646Z,1.90
2019-01-15T04:43:34.368Z,1.80
2019-01-15T04:46:05.044Z,1.70
2019-01-15T04:48:35.528Z,1.27
2019-01-15T04:51:06.528Z,1.90
2019-01-15T04:53:37.289Z,1.80
2019-01-15T04:56:07.956Z,1.80
2019-01-15T04:58:38.645Z,1.60
2019-01-15T05:01:09.295Z,2.30
2019-01-15T05:03:39.834Z,2.43
2019-01-15T05:06:10.423Z,2.17
2019-01-15T05:08:41.324Z,1.40
2019-01-15T05:11:12.029Z,1.93
2019-01-15T05:13:42.797Z,1.30
2019-01-15T05:16:13.358Z,2.67
2019-01-15T05:18:44.038Z,1.83
2019-01-15T05:21:14.719Z,2.70
2019-01-15T05:23:45.278Z,2.60
2019-01-15T05:26:15.820Z,2.00
2019-01-15T05:28:46.852Z,2.53
2019-01-15T05:31:17.624Z,2.40
2019-01-15T05:33:48.467Z,2.50
2019-01-15T05:36:19.211Z,2.42
2019-01-15T05:38:50.012Z,1.80
2019-01-15T05:41:20.696Z,2.33
2019-01-15T05:43:51.283Z,1.53
2019-01-15T05:46:21.866Z,1.83
2019-01-15T05:48:52.528Z,1.90
2019-01-15T05:51:42.832Z,2.10
2019-01-15T05:54:13.564Z,1.73
2019-01-15T05:56:44.458Z,2.03
2019-01-15T05:59:15.369Z,1.90
2019-01-15T06:01:46.248Z,2.03
2019-01-15T06:04:16.796Z,1.73
2019-01-15T06:06:47.391Z,1.73
2019-01-15T06:09:18.141Z,2.10
2019-01-15T06:11:48.828Z,1.90
2019-01-15T06:14:19.468Z,2.20
2019-01-15T06:16:50.150Z,2.27
2019-01-15T06:19:20.619Z,2.63
2019-01-15T06:21:51.286Z,2.57
2019-01-15T06:24:21.851Z,2.23
2019-01-15T06:26:52.392Z,2.87
2019-01-15T06:29:23.028Z,2.43
2019-01-15T06:31:53.675Z,2.03
2019-01-15T06:34:24.247Z,2.13
2019-01-15T06:36:54.900Z,2.70
2019-01-15T06:39:25.469Z,2.57
2019-01-15T06:41:56.103Z,1.93
2019-01-15T06:45:21.781Z,1.67
2019-01-15T06:47:55.181Z,2.87
2019-01-15T06:50:34.696Z,2.90
2019-01-15T06:53:13.393Z,2.37
2019-01-15T06:55:44.126Z,2.70
2019-01-15T06:58:17.897Z,2.47
2019-01-15T07:00:50.885Z,2.50
2019-01-15T07:03:21.714Z,3.30
2019-01-15T07:05:52.215Z,2.23
2019-01-15T07:08:24.304Z,2.33
2019-01-15T07:10:55.178Z,2.87
2019-01-15T07:13:26.227Z,2.63
2019-01-15T07:16:00.667Z,2.10
2019-01-15T07:18:32.313Z,2.37
2019-01-15T07:21:02.950Z,2.40
2019-01-15T07:23:36.447Z,2.63
2019-01-15T07:26:08.937Z,2.50
2019-01-15T07:28:41.639Z,2.90
2019-01-15T07:31:15.375Z,2.10
2019-01-15T07:33:47.867Z,1.90
2019-01-15T07:36:20.266Z,2.10
2019-01-15T07:38:51.413Z,2.83
2019-01-15T07:41:23.914Z,2.40
2019-01-15T07:44:04.190Z,2.00
2019-01-15T07:46:30.415Z,2.90
2019-01-15T07:49:06.931Z,2.40
2019-01-15T07:51:37.967Z,2.33
2019-01-15T07:54:08.914Z,2.40
2019-01-15T07:59:51.740Z,1.57
2019-01-15T08:02:24.226Z,2.03
2019-01-15T08:04:55.993Z,1.80
2019-01-15T08:07:27.122Z,2.50
2019-01-15T08:16:33.885Z,2.23
2019-01-15T08:19:34.794Z,2.50
2019-01-15T08:22:08.334Z,3.47
2019-01-15T08:24:40.882Z,3.10
2019-01-15T08:27:12.100Z,2.73
2019-01-15T08:29:43.293Z,3.33
2019-01-15T08:32:14.414Z,2.47
2019-01-15T08:34:46.514Z,3.80
2019-01-15T08:37:17.401Z,3.20
2019-01-15T08:39:48.388Z,2.97
2019-01-15T08:42:19.455Z,3.30
2019-01-15T08:44:50.425Z,1.93
2019-01-15T08:47:22.367Z,3.00
2019-01-15T08:49:53.181Z,3.03
2019-01-15T08:52:24.287Z,2.80
2019-01-15T08:54:55.120Z,2.70
2019-01-15T08:57:26.212Z,2.97
2019-01-15T08:59:57.212Z,2.17
2019-01-15T09:02:27.959Z,2.53
2019-01-15T09:04:58.451Z,3.83
2019-01-15T09:07:29.375Z,1.70
2019-01-15T09:10:00.248Z,3.00
2019-01-15T09:12:31.185Z,2.97
2019-01-15T09:15:02.374Z,2.20
2019-01-15T09:17:33.152Z,2.23
2019-01-15T09:20:04.886Z,1.80
2019-01-15T09:22:35.967Z,3.50
2019-01-15T09:25:07.119Z,4.00
2019-01-15T09:27:38.320Z,1.50
2019-01-15T09:30:12.516Z,1.07
2019-01-15T09:32:43.255Z,2.70
2019-01-15T09:35:14.219Z,2.03
2019-01-15T09:37:46.257Z,1.20
2019-01-15T09:40:19.437Z,1.40
2019-01-15T09:42:50.502Z,1.50
2019-01-15T09:45:22.997Z,1.97
2019-01-15T09:48:04.511Z,1.67
2019-01-15T09:50:36.913Z,1.60
2019-01-15T09:53:08.310Z,1.73
2019-01-15T09:55:39.533Z,1.63
2019-01-15T09:58:10.461Z,1.53
2019-01-15T10:00:41.675Z,1.97
2019-01-15T10:03:12.605Z,2.17
2019-01-15T10:05:43.269Z,1.63
2019-01-15T10:08:14.371Z,1.60
2019-01-15T10:10:45.185Z,1.50
2019-01-15T10:13:16.606Z,1.53
2019-01-15T10:15:47.657Z,1.63
2019-01-15T10:18:18.347Z,1.50
2019-01-15T10:20:49.290Z,2.00
2019-01-15T10:23:20.124Z,1.27
2019-01-15T10:25:50.838Z,1.37
2019-01-15T10:28:22.921Z,1.20
2019-01-15T10:31:33.572Z,1.90
2019-01-15T10:34:10.375Z,1.23
2019-01-15T10:36:39.693Z,1.43
2019-01-15T10:39:13.276Z,1.60
2019-01-15T10:41:44.617Z,1.60
2019-01-15T10:44:15.691Z,1.00
2019-01-15T10:46:46.433Z,1.60
2019-01-15T10:49:21.871Z,2.10
2019-01-15T10:51:55.201Z,1.67
2019-01-15T10:54:27.860Z,2.43
2019-01-15T10:56:58.741Z,2.60
2019-01-15T10:59:30.391Z,1.53
2019-01-15T11:02:01.214Z,1.40
2019-01-15T11:04:31.892Z,1.37
2019-01-15T11:07:02.697Z,2.13
2019-01-15T11:09:33.611Z,1.87
2019-01-15T11:12:04.451Z,1.77
2019-01-15T11:14:35.708Z,1.97
2019-01-15T11:17:06.607Z,1.37
2019-01-15T11:19:37.231Z,1.73
2019-01-15T11:22:08.111Z,1.97
2019-01-15T11:24:38.794Z,1.50
2019-01-15T11:27:11.450Z,1.97
2019-01-15T11:29:42.404Z,2.47
2019-01-15T11:32:13.214Z,2.10
2019-01-15T11:34:44.030Z,1.90
2019-01-15T11:37:15.096Z,1.20
2019-01-15T11:39:46.978Z,1.90
2019-01-15T11:42:17.975Z,1.17
2019-01-15T11:44:49.808Z,1.40
2019-01-15T11:47:20.377Z,1.50
2019-01-15T11:49:51.240Z,1.60
2019-01-15T11:52:21.913Z,1.73
2019-01-15T11:54:53.891Z,2.10
2019-01-15T11:57:24.962Z,2.07
2019-01-15T11:59:55.717Z,2.33
2019-01-15T12:02:45.262Z,1.37
2019-01-15T12:05:43.966Z,2.00
2019-01-15T12:08:22.942Z,1.60
2019-01-15T12:11:11.866Z,1.47
2019-01-15T12:14:13.964Z,1.80
2019-01-15T12:17:03.193Z,1.70
2019-01-15T12:19:43.239Z,1.83
2019-01-15T12:22:46.011Z,1.70
2019-01-15T12:25:34.283Z,2.30
2019-01-15T12:28:15.278Z,1.57
2019-01-15T12:31:24.136Z,2.20
2019-01-15T12:34:12.878Z,1.57
2019-01-15T12:37:08.397Z,2.03
2019-01-15T12:40:13.091Z,1.37
2019-01-15T12:43:05.553Z,1.80
2019-01-15T12:45:53.756Z,1.20
2019-01-15T12:48:56.399Z,1.57
2019-01-15T12:51:45.093Z,1.70
2019-01-15T12:54:27.576Z,1.93
2019-01-15T12:57:19.260Z,1.90
2019-01-15T13:00:09.241Z,1.43
2019-01-15T13:03:11.175Z,1.87
2019-01-15T13:06:01.863Z,1.97
2019-01-15T13:08:55.725Z,1.97
2019-01-15T13:11:48.313Z,1.70
2019-01-15T13:14:44.423Z,1.50
2019-01-15T13:17:47.054Z,1.90
2019-01-15T13:20:34.616Z,1.60
2019-01-15T13:23:25.019Z,1.37
2019-01-15T13:26:27.909Z,1.33
2019-01-15T13:29:34.149Z,1.63
2019-01-15T13:32:15.237Z,1.50
2019-01-15T13:35:23.660Z,1.60
2019-01-15T13:38:31.768Z,1.50
2019-01-15T13:41:20.339Z,1.30
2019-01-15T13:44:09.937Z,2.27
2019-01-15T13:47:06.166Z,1.67
2019-01-15T13:49:49.049Z,1.77
2019-01-15T13:52:39.238Z,1.60
2019-01-15T13:55:38.238Z,1.43
2019-01-15T13:58:35.742Z,1.97
2019-01-15T14:01:28.587Z,1.57
2019-01-15T14:04:30.208Z,2.90
2019-01-15T14:07:19.039Z,2.33
2019-01-15T14:10:04.648Z,1.40
2019-01-15T14:13:12.969Z,1.90
2019-01-15T14:16:17.735Z,2.33
2019-01-15T14:18:56.530Z,3.00
2019-01-15T14:21:45.289Z,1.90
2019-01-15T14:24:32.450Z,1.77
2019-01-15T14:27:26.010Z,1.77
2019-01-15T14:30:10.193Z,1.67
2019-01-15T14:33:00.125Z,1.77
2019-01-15T14:35:49.217Z,1.70
2019-01-15T14:38:38.314Z,1.53
2019-01-15T14:41:27.950Z,1.13
2019-01-15T14:44:16.016Z,1.87
2019-01-15T14:47:04.266Z,1.63
2019-01-15T14:49:46.028Z,1.93
2019-01-15T14:52:35.235Z,1.77
2019-01-15T14:55:31.673Z,1.80
2019-01-15T14:58:24.386Z,1.70
2019-01-15T15:01:20.213Z,1.67
2019-01-15T15:03:59.587Z,1.93
2019-01-15T15:06:48.674Z,1.60
2019-01-15T15:09:37.070Z,1.60
2019-01-15T15:12:41.725Z,1.80
2019-01-15T15:15:37.595Z,1.30
2019-01-15T15:18:46.246Z,1.93
2019-01-15T15:21:38.141Z,1.50
2019-01-15T15:24:33.582Z,1.63
2019-01-15T15:27:32.252Z,1.20
2019-01-15T15:30:18.258Z,1.53
2019-01-15T15:33:20.294Z,1.23
2019-01-15T15:36:09.044Z,3.23
2019-01-15T15:38:58.904Z,3.17
2019-01-15T15:41:47.169Z,2.87
2019-01-15T15:44:39.512Z,2.50
2019-01-15T15:47:41.792Z,3.97
2019-01-15T15:50:30.672Z,2.10
2019-01-15T15:53:20.661Z,3.27
2019-01-15T15:56:22.497Z,2.30
2019-01-15T15:59:24.084Z,1.70
2019-01-15T16:02:12.918Z,1.80
2019-01-15T16:05:02.837Z,1.40
2019-01-15T16:07:51.068Z,2.23
2019-01-15T16:10:40.857Z,1.60
2019-01-15T16:13:39.504Z,2.63
2019-01-15T16:16:34.569Z,2.13
2019-01-15T16:19:27.432Z,1.53
2019-01-15T16:22:20.245Z,1.60
2019-01-15T16:25:08.211Z,1.83
2019-01-15T16:28:13.463Z,2.57
2019-01-15T16:31:03.091Z,3.10
2019-01-15T16:33:51.553Z,1.70
2019-01-15T16:36:43.818Z,2.20
2019-01-15T16:39:32.719Z,1.67
2019-01-15T16:42:25.435Z,2.77
2019-01-15T16:45:21.040Z,2.60
2019-01-15T16:48:03.038Z,2.70
2019-01-15T16:50:55.308Z,2.20
2019-01-15T16:53:47.706Z,2.47
2019-01-15T16:56:43.366Z,1.77
2019-01-15T16:59:38.267Z,2.10
2019-01-15T17:02:27.987Z,2.00
2019-01-15T17:05:23.493Z,1.23
2019-01-15T17:08:30.755Z,1.80
2019-01-15T17:11:12.274Z,1.33
2019-01-15T17:14:05.078Z,2.17
2019-01-15T17:16:47.841Z,2.30
2019-01-15T17:19:31.764Z,1.60
2019-01-15T17:22:19.991Z,1.33
2019-01-15T17:25:07.925Z,1.83
2019-01-15T17:28:09.847Z,1.67
2019-01-15T17:30:58.088Z,1.87
2019-01-15T17:33:51.999Z,2.17
2019-01-15T17:36:59.816Z,1.30
2019-01-15T17:39:48.681Z,1.40
2019-01-15T17:42:41.337Z,1.30
2019-01-15T17:45:29.841Z,1.90
2019-01-15T17:48:23.792Z,2.63
2019-01-15T17:51:12.062Z,2.17
2019-01-15T17:53:57.701Z,1.63
2019-01-15T17:57:02.394Z,1.67
2019-01-15T17:59:50.600Z,1.83
2019-01-15T18:02:40.542Z,3.03
2019-01-15T18:05:42.062Z,1.80
2019-01-15T18:08:43.805Z,2.17
2019-01-15T18:11:51.720Z,2.20
2019-01-15T18:14:56.455Z,2.33
2019-01-15T18:17:52.184Z,2.60
2019-01-15T18:20:41.493Z,1.67
2019-01-15T18:23:30.234Z,2.40
2019-01-15T18:26:38.249Z,1.50
2019-01-15T18:29:37.296Z,2.17
2019-01-15T18:32:33.167Z,1.80
2019-01-15T18:35:17.860Z,1.87
2019-01-15T18:38:06.524Z,1.93
2019-01-15T18:40:59.481Z,2.23
2019-01-15T18:43:58.367Z,1.60
2019-01-15T18:46:46.995Z,1.93
2019-01-15T18:49:35.792Z,2.70
2019-01-15T18:52:24.809Z,2.50
2019-01-15T18:55:20.872Z,2.70
2019-01-15T18:58:19.695Z,1.50
2019-01-15T19:01:06.884Z,2.33
2019-01-15T19:04:03.231Z,2.40
2019-01-15T19:06:45.226Z,2.57
2019-01-15T19:09:40.437Z,2.63
2019-01-15T19:12:33.007Z,1.97
2019-01-15T19:15:21.779Z,3.00
2019-01-15T19:18:11.773Z,2.20
2019-01-15T19:21:09.295Z,2.70
2019-01-15T19:24:20.527Z,2.10
2019-01-15T19:27:12.407Z,1.90
2019-01-15T19:30:00.808Z,1.90
2019-01-15T19:33:05.578Z,1.73
2019-01-15T19:36:06.807Z,1.57
2019-01-15T19:38:59.463Z,2.37
2019-01-15T19:42:02.073Z,3.90
2019-01-15T19:44:50.637Z,3.90
2019-01-15T19:47:49.196Z,5.17
2019-01-15T19:50:44.395Z,4.27
2019-01-15T19:53:32.509Z,2.37
2019-01-15T19:56:20.697Z,3.40
2019-01-15T19:59:16.071Z,5.20
2019-01-15T20:02:17.708Z,5.47
2019-01-15T20:05:06.213Z,4.30
2019-01-15T20:08:14.059Z,5.27
2019-01-15T20:11:02.113Z,3.87
2019-01-15T20:13:49.516Z,4.30
2019-01-15T20:16:36.850Z,4.23
2019-01-15T20:19:21.837Z,4.57
2019-01-15T20:22:10.247Z,5.33
2019-01-15T20:25:12.011Z,4.63
2019-01-15T20:28:00.859Z,4.00
2019-01-15T20:31:02.687Z,4.43
2019-01-15T20:33:52.314Z,4.23
2019-01-15T20:36:40.438Z,4.40
2019-01-15T20:39:28.331Z,4.30
2019-01-15T20:42:18.547Z,3.67
2019-01-15T20:45:11.278Z,5.07
2019-01-15T20:48:04.523Z,4.73
2019-01-15T20:50:52.913Z,4.60
2019-01-15T20:53:41.183Z,4.17
2019-01-15T20:56:48.953Z,4.70
2019-01-15T20:59:50.758Z,4.83
2019-01-15T21:02:42.237Z,4.27
2019-01-15T21:05:30.722Z,3.97
2019-01-15T21:08:32.423Z,3.50
2019-01-15T21:11:30.987Z,3.40
2019-01-15T21:14:38.662Z,3.43
2019-01-15T21:17:40.723Z,4.50
2019-01-15T21:20:30.491Z,3.60
2019-01-15T21:23:35.641Z,4.93
2019-01-15T21:26:24.706Z,3.43
2019-01-15T21:29:26.632Z,4.03
2019-01-15T21:32:35.022Z,4.00
2019-01-15T21:35:28.632Z,3.30
2019-01-15T21:38:17.483Z,3.20
2019-01-15T21:41:05.819Z,3.77
2019-01-15T21:43:53.775Z,3.93
2019-01-15T21:46:41.940Z,3.13
2019-01-15T21:49:37.206Z,3.10
2019-01-15T21:52:25.411Z,3.67
2019-01-15T21:55:06.875Z,2.80
2019-01-15T21:57:56.428Z,3.20
2019-01-15T22:00:44.606Z,2.53
2019-01-15T22:03:46.191Z,3.40
2019-01-15T22:06:29.556Z,4.03
2019-01-15T22:09:38.832Z,2.67
2019-01-15T22:12:28.314Z,3.23
2019-01-15T22:15:16.567Z,3.07
2019-01-15T22:18:09.023Z,3.10
2019-01-15T22:20:57.539Z,2.90
2019-01-15T22:23:49.489Z,3.57
2019-01-15T22:26:54.337Z,2.73
2019-01-15T22:29:46.575Z,3.57
2019-01-15T22:32:34.897Z,2.57
2019-01-15T22:35:24.144Z,3.60
2019-01-15T22:38:13.956Z,3.60
2019-01-15T22:41:09.557Z,2.27
2019-01-15T22:44:04.793Z,3.10
2019-01-15T22:47:00.054Z,2.60
2019-01-15T22:49:49.716Z,3.10
2019-01-15T22:52:39.219Z,3.37
2019-01-15T22:55:34.976Z,3.53
2019-01-15T22:58:23.052Z,4.00
2019-01-15T23:01:16.263Z,3.10
2019-01-15T23:04:05.604Z,2.70
2019-01-15T23:06:54.026Z,2.57
2019-01-15T23:10:01.687Z,3.17
2019-01-15T23:12:41.147Z,3.20
2019-01-15T23:15:33.990Z,2.53
2019-01-15T23:18:21.064Z,2.30
2019-01-15T23:21:16.263Z,2.47
2019-01-15T23:24:04.158Z,2.77
2019-01-15T23:26:52.227Z,2.87
2019-01-15T23:29:40.375Z,1.80
2019-01-15T23:32:45.422Z,2.37
2019-01-15T23:35:35.487Z,1.67
2019-01-15T23:38:37.323Z,4.10
2019-01-15T23:41:29.802Z,2.43
2019-01-15T23:44:17.900Z,3.03
2019-01-15T23:47:07.474Z,2.53
2019-01-15T23:49:59.402Z,3.97
2019-01-15T23:52:48.922Z,4.20
2019-01-15T23:55:38.465Z,4.23
2019-01-15T23:58:28.224Z,2.73
